Time;durP1;ratioP1;P1;durP2;ratioP2;P2;SDS_P1;SDS_P2;PMS_P1;PMS_P2;Temp;Humidity;BMP_temperature;BMP_pressure;BME280_temperature;BME280_humidity;BME280_pressure;Samples;Min_cycle;Max_cycle;Signal;HPM_P1;HPM_P2
2022/02/08 00:00:23;;;;;;;;;;;;;;;21.48;27.24;101408.03;5033175;28;963;-70
2022/02/08 00:02:53;;;;;;;;;;;;;;;23.32;25.45;101408.06;5032791;28;1249;-70
2022/02/08 00:05:22;;;;;;;;;;;;;;;22.74;26.21;101415.09;5032869;28;1003;-72
2022/02/08 00:07:51;;;;;;;;;;;;;;;21.73;27.06;101411.56;5032877;28;841;-70
2022/02/08 00:10:18;;;;;;;;;;;;;;;22.63;25.84;101411.91;5032830;28;790;-73
2022/02/08 00:12:44;;;;;;;;;;;;;;;22.60;26.19;101415.91;5032327;28;1314;-72
2022/02/08 00:15:11;;;;;;;;;;;;;;;22.63;25.84;101420.22;5035923;23;3670;-76
2022/02/08 00:17:38;;;;;;;;;;;;;;;22.20;26.42;101427.09;5092855;28;962;-77
2022/02/08 00:20:07;;;;;;;;;;;;;;;21.46;27.54;101424.78;5092884;28;1021;-75
2022/02/08 00:22:35;;;;;;;;;;;;;;;21.64;27.22;101427.31;5092768;28;903;-77
2022/02/08 00:25:01;;;;;;;;;;;;;;;21.35;27.66;101431.56;5092514;28;1300;-77
2022/02/08 00:27:28;;;;;;;;;;;;;;;21.46;27.33;101422.03;5093024;28;820;-78
2022/02/08 00:29:54;;;;;;;;;;;;;;;22.43;26.40;101425.41;5091199;28;931;-77
2022/02/08 00:32:20;;;;;;;;;;;;;;;22.07;26.38;101418.56;5092633;28;871;-78
2022/02/08 00:34:47;;;;;;;;;;;;;;;22.19;26.73;101425.41;5091148;28;1344;-77
2022/02/08 00:37:14;;;;;;;;;;;;;;;21.86;26.97;101428.41;5074207;28;1981;-76
2022/02/08 00:39:42;;;;;;;;;;;;;;;21.14;27.76;101432.16;5092951;28;1062;-77
2022/02/08 00:42:10;;;;;;;;;;;;;;;23.29;25.17;101433.38;5092979;28;1073;-76
2022/02/08 00:44:42;;;;;;;;;;;;;;;21.50;27.91;101430.78;5090958;28;1426;-78
2022/02/08 00:47:19;;;;;;;;;;;;;;;22.83;25.82;101435.22;5091037;28;1013;-78
2022/02/08 00:49:46;;;;;;;;;;;;;;;22.54;26.18;101433.25;5070801;28;923;-77
2022/02/08 00:52:15;;;;;;;;;;;;;;;22.77;26.10;101429.59;5070832;28;970;-77
2022/02/08 00:54:44;;;;;;;;;;;;;;;22.45;26.47;101431.59;5070083;28;1279;-78
2022/02/08 00:57:11;;;;;;;;;;;;;;;22.82;25.91;101433.53;5070703;28;1922;-77
2022/02/08 00:59:38;;;;;;;;;;;;;;;23.77;24.74;101438.44;5070615;28;922;-77
2022/02/08 01:02:05;;;;;;;;;;;;;;;23.63;24.94;101449.38;5070893;28;1057;-77
2022/02/08 01:04:31;;;;;;;;;;;;;;;22.55;26.11;101444.16;5070066;28;1278;-78
2022/02/08 01:06:59;;;;;;;;;;;;;;;23.26;25.33;101451.22;5070405;28;804;-78
2022/02/08 01:09:37;;;;;;;;;;;;;;;23.92;24.81;101450.41;5070522;28;1038;-79
2022/02/08 01:12:06;;;;;;;;;;;;;;;22.89;25.43;101439.16;5070423;28;986;-77
2022/02/08 01:14:38;;;;;;;;;;;;;;;23.33;24.99;101441.13;5070075;28;1360;-76
2022/02/08 01:17:04;;;;;;;;;;;;;;;24.08;24.27;101432.66;5071623;28;1977;-78
2022/02/08 01:19:30;;;;;;;;;;;;;;;23.90;24.65;101436.75;5070634;28;883;-78
2022/02/08 01:21:57;;;;;;;;;;;;;;;24.06;24.52;101440.31;5069361;28;1107;-76
2022/02/08 01:24:23;;;;;;;;;;;;;;;23.80;24.69;101438.94;5069934;28;1486;-77
2022/02/08 01:26:58;;;;;;;;;;;;;;;23.85;24.44;101450.28;5072148;28;1561;-77
2022/02/08 01:29:37;;;;;;;;;;;;;;;23.98;24.37;101432.97;5070056;28;991;-78
2022/02/08 01:32:16;;;;;;;;;;;;;;;22.46;26.02;101428.69;5071471;28;1045;-79
2022/02/08 01:34:56;;;;;;;;;;;;;;;23.48;25.05;101431.94;5070729;28;1300;-79
2022/02/08 01:37:27;;;;;;;;;;;;;;;23.85;24.65;101433.66;5069841;28;1971;-78
2022/02/08 01:40:04;;;;;;;;;;;;;;;22.68;26.05;101439.88;5071646;28;1002;-80
2022/02/08 01:42:42;;;;;;;;;;;;;;;22.55;26.06;101437.75;5069721;28;871;-79
2022/02/08 01:45:35;;;;;;;;;;;;;;;22.82;25.83;101439.06;5070942;28;1321;-77
2022/02/08 01:48:06;;;;;;;;;;;;;;;23.21;25.17;101437.09;5083700;28;1168;-78
2022/02/08 01:50:34;;;;;;;;;;;;;;;23.90;24.53;101433.97;5110299;28;1017;-78
2022/02/08 01:53:01;;;;;;;;;;;;;;;24.44;23.58;101433.63;5110203;28;1089;-76
2022/02/08 01:55:33;;;;;;;;;;;;;;;22.40;26.21;101429.41;5109874;28;1279;-77
2022/02/08 01:57:59;;;;;;;;;;;;;;;24.24;24.02;101432.38;5111249;28;772;-76
2022/02/08 02:00:29;;;;;;;;;;;;;;;24.09;24.00;101428.81;5093335;28;1234;-78
2022/02/08 02:02:56;;;;;;;;;;;;;;;23.79;24.73;101416.97;5110325;28;839;-75
2022/02/08 02:05:30;;;;;;;;;;;;;;;24.22;24.10;101428.09;5108968;28;1341;-76
2022/02/08 02:07:58;;;;;;;;;;;;;;;23.42;25.16;101428.00;5110015;28;971;-78
2022/02/08 02:10:26;;;;;;;;;;;;;;;24.19;24.31;101426.56;5109908;28;840;-77
2022/02/08 02:12:54;;;;;;;;;;;;;;;24.54;23.75;101431.38;5110002;28;1074;-78
2022/02/08 02:15:23;;;;;;;;;;;;;;;23.24;24.85;101418.19;5109240;28;1368;-77
2022/02/08 02:17:52;;;;;;;;;;;;;;;23.64;24.76;101431.69;5109502;28;1917;-78
2022/02/08 02:20:18;;;;;;;;;;;;;;;24.36;24.09;101429.94;5092702;28;1235;-78
2022/02/08 02:22:45;;;;;;;;;;;;;;;23.13;25.03;101423.31;5109765;28;800;-78
2022/02/08 02:25:24;;;;;;;;;;;;;;;23.47;24.61;101422.75;5109713;28;1407;-78
2022/02/08 02:27:53;;;;;;;;;;;;;;;23.11;25.26;101429.03;5109833;28;903;-76
2022/02/08 02:30:20;;;;;;;;;;;;;;;23.14;25.01;101420.38;5109846;28;1077;-78
2022/02/08 02:32:46;;;;;;;;;;;;;;;24.00;24.00;101424.47;5109490;28;911;-75
2022/02/08 02:35:14;;;;;;;;;;;;;;;23.20;24.84;101427.09;5109371;28;1363;-76
2022/02/08 02:37:40;;;;;;;;;;;;;;;22.73;25.18;101431.88;5109612;28;1909;-77
2022/02/08 02:40:08;;;;;;;;;;;;;;;23.02;25.01;101427.41;5109745;28;1001;-79
2022/02/08 02:42:36;;;;;;;;;;;;;;;22.35;25.77;101424.41;5109558;28;824;-77
2022/02/08 02:45:05;;;;;;;;;;;;;;;22.78;25.57;101434.06;5110593;28;1359;-76
2022/02/08 02:47:31;;;;;;;;;;;;;;;23.60;24.41;101432.28;5108320;28;1169;-78
2022/02/08 02:49:58;;;;;;;;;;;;;;;23.09;24.91;101422.84;5089146;28;1063;-77
2022/02/08 02:52:24;;;;;;;;;;;;;;;23.18;24.86;101418.09;5090377;28;986;-77
2022/02/08 02:54:56;;;;;;;;;;;;;;;22.36;25.45;101417.00;5064256;28;2029;-77
2022/02/08 02:57:25;;;;;;;;;;;;;;;22.80;25.25;101420.94;5084298;28;1977;-80
2022/02/08 03:00:01;;;;;;;;;;;;;;;24.19;23.64;101415.47;5096272;28;1279;-77
2022/02/08 03:02:39;;;;;;;;;;;;;;;22.64;25.30;101417.25;5109334;28;928;-77
2022/02/08 03:05:16;;;;;;;;;;;;;;;22.18;25.95;101422.81;5109236;28;1325;-75
2022/02/08 03:18:45;;;;;;;;;;;;;;;23.17;24.73;101413.59;5093090;28;998;-77
2022/02/08 03:21:12;;;;;;;;;;;;;;;23.12;24.31;101416.94;5092946;28;942;-78
2022/02/08 03:23:39;;;;;;;;;;;;;;;23.27;24.42;101405.03;5092729;28;1187;-76
2022/02/08 03:26:07;;;;;;;;;;;;;;;21.30;26.51;101411.03;5075559;28;1334;-77
2022/02/08 03:28:38;;;;;;;;;;;;;;;22.63;25.48;101403.63;5092837;28;1006;-78
2022/02/08 03:31:09;;;;;;;;;;;;;;;23.26;24.40;101397.75;5068235;28;1566;-78
2022/02/08 03:33:37;;;;;;;;;;;;;;;23.70;23.46;101396.81;5072046;28;1022;-77
2022/02/08 03:36:09;;;;;;;;;;;;;;;23.19;24.46;101405.97;5072019;28;1898;-77
2022/02/08 03:38:42;;;;;;;;;;;;;;;23.08;24.22;101404.50;5072295;28;1266;-78
2022/02/08 03:41:10;;;;;;;;;;;;;;;22.60;24.49;101406.78;5072733;28;990;-78
2022/02/08 03:43:44;;;;;;;;;;;;;;;23.05;24.36;101408.53;5072432;28;942;-77
2022/02/08 03:46:15;;;;;;;;;;;;;;;22.89;24.22;101409.56;5071854;28;1349;-78
2022/02/08 03:48:43;;;;;;;;;;;;;;;23.28;24.03;101404.81;5086130;28;1210;-77
2022/02/08 03:51:13;;;;;;;;;;;;;;;23.90;23.25;101392.38;5112627;28;645;-78
2022/02/08 03:53:47;;;;;;;;;;;;;;;22.89;24.85;101398.50;5112859;28;862;-78
2022/02/08 03:56:16;;;;;;;;;;;;;;;22.53;24.48;101388.16;5112424;28;1976;-76
2022/02/08 03:58:43;;;;;;;;;;;;;;;22.29;24.99;101388.31;5112402;28;1005;-78
2022/02/08 04:01:52;;;;;;;;;;;;;;;22.43;25.32;101393.06;5112291;28;998;-78
2022/02/08 04:04:32;;;;;;;;;;;;;;;22.47;24.64;101379.75;5113389;28;1412;-75
2022/02/08 04:07:02;;;;;;;;;;;;;;;23.25;24.08;101385.84;5113152;28;1183;-78
2022/02/08 04:09:29;;;;;;;;;;;;;;;22.04;25.40;101385.78;5113750;28;887;-76
2022/02/08 04:11:59;;;;;;;;;;;;;;;23.76;23.59;101382.19;5113470;28;977;-76
2022/02/08 04:14:35;;;;;;;;;;;;;;;23.27;23.79;101378.19;5112709;28;1395;-76
2022/02/08 04:17:12;;;;;;;;;;;;;;;23.03;24.02;101379.31;5113322;28;1914;-78
2022/02/08 04:19:49;;;;;;;;;;;;;;;23.43;23.73;101377.09;5113428;28;781;-78
2022/02/08 04:33:54;;;;;;;;;;;;;;;22.88;24.07;101348.88;5112882;28;1038;-77
2022/02/08 04:36:41;;;;;;;;;;;;;;;23.56;23.35;101351.47;5112867;28;1366;-78
2022/02/08 04:39:22;;;;;;;;;;;;;;;23.45;23.39;101343.66;5113679;28;933;-77
2022/02/08 04:42:00;;;;;;;;;;;;;;;23.50;23.44;101342.00;5113006;28;930;-77
2022/02/08 04:44:33;;;;;;;;;;;;;;;23.14;23.77;101345.63;5111031;28;1500;-78
2022/02/08 04:47:08;;;;;;;;;;;;;;;22.62;24.45;101339.13;5112955;28;816;-75
2022/02/08 04:49:35;;;;;;;;;;;;;;;22.46;24.23;101333.75;5098527;28;1244;-76
2022/02/08 04:52:05;;;;;;;;;;;;;;;23.03;23.53;101343.31;5092928;28;1001;-77
2022/02/08 04:54:40;;;;;;;;;;;;;;;23.06;23.79;101331.84;5091921;28;1394;-78
2022/02/08 04:57:14;;;;;;;;;;;;;;;21.86;24.75;101333.56;5092249;28;1917;-76
2022/02/08 05:00:09;;;;;;;;;;;;;;;22.99;23.77;101339.22;5092395;28;990;-78
2022/02/08 05:35:38;;;;;;;;;;;;;;;23.10;23.54;101291.66;5066875;28;1502;-76
2022/02/08 05:44:01;;;;;;;;;;;;;;;24.02;22.52;101283.72;5082742;28;1448;-77
2022/02/08 05:49:12;;;;;;;;;;;;;;;23.34;23.67;101276.66;5060620;28;1581;-77
2022/02/08 05:51:58;;;;;;;;;;;;;;;23.42;23.36;101272.03;5069687;28;1073;-77
2022/02/08 05:54:26;;;;;;;;;;;;;;;23.07;23.48;101262.44;5067852;28;1527;-77
2022/02/08 05:56:54;;;;;;;;;;;;;;;22.99;24.24;101275.56;5068998;28;1914;-77
2022/02/08 05:59:20;;;;;;;;;;;;;;;22.44;24.63;101264.81;5067843;28;1536;-77
2022/02/08 06:01:47;;;;;;;;;;;;;;;23.25;24.06;101258.44;5069343;28;1121;-76
2022/02/08 06:04:22;;;;;;;;;;;;;;;22.86;24.63;101259.63;5060410;28;1423;-78
2022/02/08 06:06:48;;;;;;;;;;;;;;;22.31;25.33;101259.06;5087795;28;1152;-78
2022/02/08 06:09:15;;;;;;;;;;;;;;;22.50;25.22;101257.66;5073965;28;1448;-76
2022/02/08 06:11:43;;;;;;;;;;;;;;;22.47;25.50;101267.19;5068613;28;978;-77
2022/02/08 06:14:10;;;;;;;;;;;;;;;23.99;24.00;101268.34;5058455;28;1469;-78
2022/02/08 06:16:37;;;;;;;;;;;;;;;23.92;24.23;101259.13;5087492;28;1065;-77
2022/02/08 06:19:04;;;;;;;;;;;;;;;23.79;23.75;101257.06;5089907;22;3836;-73
2022/02/08 06:21:31;;;;;;;;;;;;;;;23.78;24.21;101251.72;5086645;28;1367;-73
2022/02/08 06:23:57;;;;;;;;;;;;;;;22.81;25.27;101251.91;5080521;28;1664;-74
2022/02/08 06:26:24;;;;;;;;;;;;;;;22.53;26.15;101241.53;5068520;28;998;-74
2022/02/08 06:29:03;;;;;;;;;;;;;;;23.64;25.17;101242.44;5076152;28;1477;-72
2022/02/08 06:31:29;;;;;;;;;;;;;;;22.80;25.37;101228.06;5065121;28;1151;-72
2022/02/08 06:33:55;;;;;;;;;;;;;;;23.95;24.82;101241.25;5069479;28;1512;-73
2022/02/08 06:36:22;;;;;;;;;;;;;;;23.78;24.56;101235.94;5069267;28;1552;-73
2022/02/08 06:38:48;;;;;;;;;;;;;;;23.21;25.18;101244.13;5076251;28;1914;-73
2022/02/08 06:41:14;;;;;;;;;;;;;;;22.33;26.21;101240.38;5050960;28;1588;-75
2022/02/08 06:43:40;;;;;;;;;;;;;;;23.57;24.87;101237.69;5059425;28;977;-73
2022/02/08 06:46:08;;;;;;;;;;;;;;;23.42;24.75;101239.66;5048908;28;1156;-73
2022/02/08 06:48:34;;;;;;;;;;;;;;;22.29;25.62;101230.72;5033492;28;1400;-71
2022/02/08 06:51:02;;;;;;;;;;;;;;;23.16;25.37;101240.25;5051694;28;1592;-74
2022/02/08 06:53:28;;;;;;;;;;;;;;;23.40;24.73;101231.53;5074143;28;1497;-74
2022/02/08 06:55:55;;;;;;;;;;;;;;;24.18;24.10;101232.66;5076089;28;1463;-73
2022/02/08 06:58:24;;;;;;;;;;;;;;;24.64;23.86;101231.25;5074590;28;1910;-74
2022/02/08 07:00:51;;;;;;;;;;;;;;;25.02;23.39;101233.56;5073859;28;1505;-75
2022/02/08 07:03:18;;;;;;;;;;;;;;;23.63;24.64;101229.63;5074742;28;789;-74
2022/02/08 07:05:45;;;;;;;;;;;;;;;24.78;23.67;101221.91;5070019;28;1357;-75
2022/02/08 07:08:11;;;;;;;;;;;;;;;23.88;24.59;101217.06;5062459;28;1324;-75
2022/02/08 07:10:39;;;;;;;;;;;;;;;24.58;23.60;101230.13;5067488;28;1319;-73
2022/02/08 07:13:07;;;;;;;;;;;;;;;23.92;24.20;101222.22;5051257;28;986;-75
2022/02/08 07:15:34;;;;;;;;;;;;;;;24.30;24.20;101222.69;5073388;28;1488;-74
2022/02/08 07:18:01;;;;;;;;;;;;;;;24.23;24.12;101225.44;5073414;28;1971;-74
2022/02/08 07:20:31;;;;;;;;;;;;;;;24.84;23.52;101228.56;5073291;28;1665;-74
2022/02/08 07:22:57;;;;;;;;;;;;;;;24.33;24.32;101208.44;5073177;28;1560;-74
2022/02/08 07:25:24;;;;;;;;;;;;;;;23.42;25.73;101205.56;5073415;28;1501;-74
2022/02/08 07:27:50;;;;;;;;;;;;;;;23.78;25.69;101215.69;5055516;28;1559;-75
2022/02/08 07:30:16;;;;;;;;;;;;;;;22.76;27.41;101203.75;5073970;28;1376;-73
2022/02/08 07:32:46;;;;;;;;;;;;;;;24.53;25.50;101213.22;5055265;28;1619;-72
2022/02/08 07:35:24;;;;;;;;;;;;;;;24.53;25.85;101207.69;5073076;28;1542;-76
2022/02/08 07:37:57;;;;;;;;;;;;;;;23.06;26.74;101196.22;5055155;28;1910;-75
2022/02/08 07:40:40;;;;;;;;;;;;;;;23.75;26.30;101197.53;5072842;28;1704;-74
2022/02/08 07:43:07;;;;;;;;;;;;;;;23.58;26.51;101199.75;5071359;28;1413;-75
2022/02/08 07:45:45;;;;;;;;;;;;;;;23.83;26.92;101199.31;5053610;28;1627;-74
2022/02/08 07:48:11;;;;;;;;;;;;;;;22.54;27.72;101192.59;5059769;28;1350;-74
2022/02/08 07:50:40;;;;;;;;;;;;;;;23.47;26.93;101192.81;5044557;28;1329;-73
2022/02/08 07:53:09;;;;;;;;;;;;;;;24.11;26.44;101198.50;5073042;28;1018;-75
2022/02/08 07:55:35;;;;;;;;;;;;;;;23.70;26.93;101186.19;5072416;28;1571;-75
2022/02/08 07:58:02;;;;;;;;;;;;;;;23.29;27.76;101176.69;5053254;28;1984;-75
2022/02/08 08:00:28;;;;;;;;;;;;;;;24.40;26.43;101192.69;5045399;28;1512;-75
2022/02/08 08:02:54;;;;;;;;;;;;;;;24.06;27.03;101188.00;5042766;28;1659;-73
2022/02/08 08:05:21;;;;;;;;;;;;;;;23.72;27.49;101184.09;5065885;28;1943;-74
2022/02/08 08:07:47;;;;;;;;;;;;;;;24.32;26.60;101191.97;5066398;28;1300;-76
2022/02/08 08:10:17;;;;;;;;;;;;;;;23.87;27.62;101184.84;5072783;28;1337;-75
2022/02/08 08:12:49;;;;;;;;;;;;;;;23.55;28.03;101201.00;5069555;28;957;-75
2022/02/08 08:15:27;;;;;;;;;;;;;;;24.49;26.85;101206.38;5069008;28;1206;-74
2022/02/08 08:17:58;;;;;;;;;;;;;;;25.42;25.99;101193.94;5072564;28;1910;-76
2022/02/08 08:20:24;;;;;;;;;;;;;;;23.61;27.81;101193.81;5072975;28;1326;-74
2022/02/08 08:22:51;;;;;;;;;;;;;;;24.50;27.17;101208.94;5055698;28;1528;-77
2022/02/08 08:25:18;;;;;;;;;;;;;;;23.59;27.94;101207.00;5073058;28;1059;-75
2022/02/08 08:27:45;;;;;;;;;;;;;;;24.58;26.92;101214.31;5073021;28;1330;-77
2022/02/08 08:30:11;;;;;;;;;;;;;;;24.12;27.61;101205.72;5053256;28;1508;-76
2022/02/08 08:32:39;;;;;;;;;;;;;;;23.86;28.20;101216.38;5077324;28;1309;-76
2022/02/08 08:35:06;;;;;;;;;;;;;;;24.47;27.84;101225.16;5087231;28;1149;-75
2022/02/08 08:37:37;;;;;;;;;;;;;;;24.98;26.92;101226.69;5072487;28;1984;-76
2022/02/08 08:40:14;;;;;;;;;;;;;;;23.38;28.42;101214.28;5062149;28;1477;-77
2022/02/08 08:42:49;;;;;;;;;;;;;;;24.88;26.75;101211.28;5052194;28;958;-76
2022/02/08 08:51:00;;;;;;;;;;;;;;;23.34;29.12;101192.69;5053947;28;1646;-77
2022/02/08 08:53:27;;;;;;;;;;;;;;;24.15;28.04;101195.09;5054751;28;1537;-78
2022/02/08 08:55:54;;;;;;;;;;;;;;;23.23;28.90;101192.16;5065819;28;1761;-75
2022/02/08 08:58:21;;;;;;;;;;;;;;;24.07;27.62;101192.50;5044067;28;1918;-77
2022/02/08 09:00:47;;;;;;;;;;;;;;;23.22;29.91;101193.25;5059391;28;1329;-75
2022/02/08 09:03:14;;;;;;;;;;;;;;;23.71;29.18;101186.00;5064286;28;1518;-77
2022/02/08 09:05:41;;;;;;;;;;;;;;;23.50;28.84;101174.94;5071684;28;1464;-76
2022/02/08 09:08:07;;;;;;;;;;;;;;;23.92;28.71;101183.41;5071871;28;998;-77
2022/02/08 09:10:44;;;;;;;;;;;;;;;23.09;30.12;101173.69;5070758;28;1492;-75
2022/02/08 09:13:20;;;;;;;;;;;;;;;24.27;28.95;101172.34;5053660;28;976;-76
2022/02/08 09:15:59;;;;;;;;;;;;;;;23.03;30.62;101169.78;5071189;28;1519;-75
2022/02/08 09:21:29;;;;;;;;;;;;;;;23.38;29.62;101161.66;5070591;28;1512;-76
2022/02/08 09:24:17;;;;;;;;;;;;;;;24.89;28.18;101162.16;5071232;28;1375;-76
2022/02/08 09:29:39;;;;;;;;;;;;;;;24.76;27.81;101170.44;5070979;28;1518;-76
2022/02/08 09:32:14;;;;;;;;;;;;;;;24.42;28.58;101181.38;5053413;28;1484;-76
2022/02/08 09:34:42;;;;;;;;;;;;;;;25.41;27.63;101181.94;5037458;28;1340;-75
2022/02/08 09:37:10;;;;;;;;;;;;;;;24.60;28.60;101179.97;5059068;28;1038;-74
2022/02/08 09:39:36;;;;;;;;;;;;;;;24.37;28.74;101176.47;5039216;28;2009;-78
2022/02/08 09:42:03;;;;;;;;;;;;;;;24.44;28.70;101182.03;5068537;28;1387;-77
2022/02/08 09:44:31;;;;;;;;;;;;;;;24.50;28.80;101159.00;5071956;28;995;-77
2022/02/08 09:46:58;;;;;;;;;;;;;;;22.76;31.55;101159.47;5078173;28;1034;-77
2022/02/08 09:49:27;;;;;;;;;;;;;;;24.06;29.66;101175.00;5071204;28;1436;-76
2022/02/08 09:51:54;;;;;;;;;;;;;;;24.91;28.65;101171.16;5070828;28;1350;-78
2022/02/08 09:54:22;;;;;;;;;;;;;;;24.29;29.40;101168.31;5053203;28;1346;-77
2022/02/08 09:56:48;;;;;;;;;;;;;;;24.76;29.01;101179.66;5071441;28;1686;-77
2022/02/08 09:59:14;;;;;;;;;;;;;;;24.66;29.27;101168.91;5052836;28;1914;-77
2022/02/08 10:01:51;;;;;;;;;;;;;;;24.31;30.12;101159.78;5065676;28;1223;-78
2022/02/08 10:04:18;;;;;;;;;;;;;;;23.59;30.59;101170.13;5071798;28;1624;-75
2022/02/08 10:06:45;;;;;;;;;;;;;;;25.52;28.24;101156.31;5059584;28;1271;-77
2022/02/08 10:09:11;;;;;;;;;;;;;;;23.33;30.82;101161.38;5072485;28;1544;-76
2022/02/08 10:11:43;;;;;;;;;;;;;;;24.48;29.88;101166.69;5073329;28;915;-77
2022/02/08 10:14:19;;;;;;;;;;;;;;;24.02;29.96;101148.72;5071895;28;1529;-74
2022/02/08 10:22:30;;;;;;;;;;;;;;;25.34;28.01;101136.66;5017338;28;820;-77
2022/02/08 10:25:00;;;;;;;;;;;;;;;25.39;28.63;101139.66;5061610;28;1457;-75
2022/02/08 10:27:30;;;;;;;;;;;;;;;24.58;28.73;101116.34;5071042;28;1469;-75
2022/02/08 10:30:13;;;;;;;;;;;;;;;25.34;28.33;101133.88;5052899;28;1501;-75
2022/02/08 10:38:38;;;;;;;;;;;;;;;25.28;28.57;101138.34;5062695;28;1909;-74
2022/02/08 10:41:11;;;;;;;;;;;;;;;25.52;28.52;101138.78;5062273;28;1518;-76
2022/02/08 10:43:38;;;;;;;;;;;;;;;25.96;27.84;101120.53;5063747;28;1311;-76
2022/02/08 10:46:05;;;;;;;;;;;;;;;24.14;29.63;101131.53;5069302;28;1146;-74
2022/02/08 10:48:32;;;;;;;;;;;;;;;25.61;28.44;101126.38;5051476;28;851;-73
2022/02/08 10:51:01;;;;;;;;;;;;;;;24.98;29.09;101121.19;5058021;28;1553;-74
2022/02/08 10:53:37;;;;;;;;;;;;;;;25.82;28.44;101130.84;5071305;28;1001;-76
2022/02/08 10:56:09;;;;;;;;;;;;;;;26.73;27.26;101123.50;5070484;28;1503;-74
2022/02/08 10:58:41;;;;;;;;;;;;;;;26.56;27.09;101136.22;5070684;28;1969;-75
2022/02/08 11:01:11;;;;;;;;;;;;;;;25.61;29.16;101125.53;5072094;28;1457;-75
2022/02/08 11:03:43;;;;;;;;;;;;;;;25.47;28.58;101119.09;5071251;28;1521;-77
2022/02/08 11:06:21;;;;;;;;;;;;;;;25.95;28.44;101118.84;5044032;28;926;-76
2022/02/08 11:09:11;;;;;;;;;;;;;;;24.43;29.86;101108.19;5069415;28;1516;-74
2022/02/08 11:14:33;;;;;;;;;;;;;;;26.32;28.01;101121.97;5044658;28;1572;-76
2022/02/08 11:22:41;;;;;;;;;;;;;;;25.42;29.32;101121.69;5055926;28;1356;-76
2022/02/08 11:25:16;;;;;;;;;;;;;;;26.06;28.21;101125.69;5068868;28;1351;-76
2022/02/08 11:27:50;;;;;;;;;;;;;;;25.39;29.13;101114.66;5073298;28;1236;-76
2022/02/08 11:30:26;;;;;;;;;;;;;;;25.53;29.06;101124.66;5071357;28;1647;-77
2022/02/08 11:33:04;;;;;;;;;;;;;;;25.61;28.86;101134.72;5052794;28;1346;-77
2022/02/08 11:44:26;;;;;;;;;;;;;;;26.76;28.08;101119.44;4992259;28;1581;-76
2022/02/08 11:47:15;;;;;;;;;;;;;;;26.32;28.33;101116.38;5054359;28;922;-78
2022/02/08 11:49:51;;;;;;;;;;;;;;;26.63;28.05;101103.66;5058650;28;1358;-77
2022/02/08 11:52:46;;;;;;;;;;;;;;;26.58;28.63;101106.25;5057717;28;1513;-77
2022/02/08 11:55:30;;;;;;;;;;;;;;;27.01;28.22;101093.59;5074322;28;1236;-79
2022/02/08 11:58:14;;;;;;;;;;;;;;;26.26;29.58;101097.81;5057144;28;1173;-77
2022/02/08 12:00:45;;;;;;;;;;;;;;;25.41;30.65;101093.03;5068288;28;1969;-79
2022/02/08 12:06:06;;;;;;;;;;;;;;;27.78;27.21;101093.38;5041232;28;1095;-77
2022/02/08 12:08:32;;;;;;;;;;;;;;;26.47;29.29;101073.53;5058709;28;1085;-79
2022/02/08 12:11:17;;;;;;;;;;;;;;;27.16;28.88;101082.09;5075771;28;1332;-79
2022/02/08 12:26:58;;;;;;;;;;;;;;;26.88;28.86;101081.47;5056331;28;788;-77
2022/02/08 12:33:54;;;;;;;;;;;;;;;26.98;29.21;101103.25;4994165;28;1449;-76
2022/02/08 12:36:43;;;;;;;;;;;;;;;25.02;31.91;101103.03;4988493;28;1288;-72
2022/02/08 12:51:02;;;;;;;;;;;;;;;27.72;27.78;101092.34;5005784;28;1527;-75
2022/02/08 12:53:45;;;;;;;;;;;;;;;26.39;29.73;101083.00;4974638;28;1626;-74
2022/02/08 12:56:18;;;;;;;;;;;;;;;27.59;28.24;101097.19;4993756;28;1490;-73
2022/02/08 12:59:00;;;;;;;;;;;;;;;26.05;30.39;101088.69;4991970;28;1906;-75
2022/02/08 13:01:53;;;;;;;;;;;;;;;25.37;31.44;101091.75;4990669;28;1444;-72
2022/02/08 13:04:32;;;;;;;;;;;;;;;26.11;30.54;101088.88;4990952;28;956;-74
2022/02/08 13:32:48;;;;;;;;;;;;;;;26.21;31.08;101098.47;5029357;28;1464;-74
2022/02/08 14:05:52;;;;;;;;;;;;;;;26.85;30.50;101093.03;4963228;28;1567;-73
2022/02/08 14:08:31;;;;;;;;;;;;;;;25.70;32.70;101096.44;4984393;28;1302;-73
2022/02/08 14:11:37;;;;;;;;;;;;;;;26.53;32.16;101097.69;5008623;28;1486;-75
2022/02/08 14:14:25;;;;;;;;;;;;;;;26.53;31.34;101101.31;5009075;28;956;-74
2022/02/08 14:17:25;;;;;;;;;;;;;;;27.69;29.67;101109.53;5030101;28;1506;-74
2022/02/08 14:19:52;;;;;;;;;;;;;;;26.13;31.89;101112.63;5029774;28;1914;-76
2022/02/08 14:22:31;;;;;;;;;;;;;;;28.12;29.55;101116.19;5012269;28;911;-74
2022/02/08 14:30:34;;;;;;;;;;;;;;;26.72;31.09;101116.25;5012196;28;1396;-77
2022/02/08 14:33:11;;;;;;;;;;;;;;;26.81;30.86;101114.06;5029937;28;1573;-75
2022/02/08 14:49:57;;;;;;;;;;;;;;;27.41;30.42;101118.38;5025817;28;1395;-75
2022/02/08 14:57:43;;;;;;;;;;;;;;;28.72;28.67;101122.97;5009666;28;2198;-73
2022/02/08 15:00:23;;;;;;;;;;;;;;;27.67;30.33;101131.22;5025340;28;1907;-74
2022/02/08 15:05:48;;;;;;;;;;;;;;;27.96;30.27;101133.50;4989662;28;1270;-73
2022/02/08 15:08:26;;;;;;;;;;;;;;;26.53;31.60;101123.59;5012898;28;1486;-74
2022/02/08 15:10:55;;;;;;;;;;;;;;;27.61;30.15;101139.66;5035911;28;1346;-73
2022/02/08 15:13:24;;;;;;;;;;;;;;;28.58;29.43;101139.00;5032349;28;1224;-73
2022/02/08 15:18:33;;;;;;;;;;;;;;;28.52;29.58;101157.56;5013514;28;1380;-74
2022/02/08 15:20:59;;;;;;;;;;;;;;;28.01;29.89;101142.09;5033518;28;1922;-73
2022/02/08 15:23:26;;;;;;;;;;;;;;;28.87;29.14;101144.91;5032685;28;1441;-73
2022/02/08 15:25:55;;;;;;;;;;;;;;;28.16;29.83;101153.69;5032506;28;1700;-73
2022/02/08 15:28:22;;;;;;;;;;;;;;;28.38;29.96;101161.59;5036773;28;1296;-73
2022/02/08 15:30:49;;;;;;;;;;;;;;;28.31;29.04;101158.06;5031666;28;1490;-72
2022/02/08 15:33:15;;;;;;;;;;;;;;;28.14;29.86;101155.88;5032264;28;1011;-73
2022/02/08 15:35:43;;;;;;;;;;;;;;;27.64;30.35;101159.53;5029288;28;1570;-74
2022/02/08 15:38:09;;;;;;;;;;;;;;;28.77;29.00;101159.44;5029645;28;1279;-72
2022/02/08 15:40:35;;;;;;;;;;;;;;;28.22;29.77;101158.38;5031914;28;1906;-72
2022/02/08 15:43:02;;;;;;;;;;;;;;;28.08;29.70;101156.81;5027972;28;1553;-73
2022/02/08 15:45:32;;;;;;;;;;;;;;;28.52;29.35;101162.31;5033542;28;1375;-74
2022/02/08 15:48:00;;;;;;;;;;;;;;;28.09;30.00;101160.44;5025438;28;1596;-72
2022/02/08 15:50:33;;;;;;;;;;;;;;;27.79;30.70;101170.34;5029063;28;1525;-75
2022/02/08 15:53:23;;;;;;;;;;;;;;;28.10;29.96;101179.75;5032757;28;1558;-74
2022/02/08 15:56:05;;;;;;;;;;;;;;;27.04;30.85;101168.31;5032553;28;1518;-74
2022/02/08 16:01:26;;;;;;;;;;;;;;;29.09;29.07;101183.47;5031593;28;1922;-75
2022/02/08 16:09:26;;;;;;;;;;;;;;;28.51;29.57;101191.31;5024096;28;1550;-77
2022/02/08 16:12:08;;;;;;;;;;;;;;;27.53;30.42;101194.59;5025010;28;1533;-76
2022/02/08 16:14:47;;;;;;;;;;;;;;;27.60;30.67;101188.97;5028181;28;1066;-74
2022/02/08 16:17:25;;;;;;;;;;;;;;;27.80;30.36;101185.16;5031493;28;1320;-76
2022/02/08 16:20:05;;;;;;;;;;;;;;;28.99;28.77;101196.06;5032082;28;1980;-77
2022/02/08 16:22:56;;;;;;;;;;;;;;;29.25;28.54;101198.72;5032591;28;1199;-76
2022/02/08 16:25:30;;;;;;;;;;;;;;;27.69;29.83;101197.91;5008822;28;1518;-73
2022/02/08 16:28:13;;;;;;;;;;;;;;;28.32;29.59;101210.84;5032558;28;1260;-75
2022/02/08 16:33:59;;;;;;;;;;;;;;;28.52;29.94;101212.56;5015435;28;1534;-76
2022/02/08 16:53:07;;;;;;;;;;;;;;;27.71;31.04;101218.91;5032074;28;1592;-78
2022/02/08 16:55:47;;;;;;;;;;;;;;;27.08;31.70;101224.47;5032136;28;919;-79
2022/02/08 16:58:27;;;;;;;;;;;;;;;28.80;29.60;101237.16;5031778;28;1395;-79
2022/02/08 17:00:57;;;;;;;;;;;;;;;29.03;29.15;101236.41;5031846;28;1977;-77
2022/02/08 17:03:28;;;;;;;;;;;;;;;28.37;29.57;101238.91;5029400;28;1648;-75
2022/02/08 17:05:54;;;;;;;;;;;;;;;28.71;29.55;101241.34;5044311;28;1493;-74
2022/02/08 17:08:22;;;;;;;;;;;;;;;29.01;28.94;101243.31;5030134;28;1313;-78
2022/02/08 17:10:51;;;;;;;;;;;;;;;28.44;29.53;101247.22;5012844;28;1589;-78
2022/02/08 17:13:36;;;;;;;;;;;;;;;28.52;29.72;101257.22;5029975;28;1466;-74
2022/02/08 17:16:11;;;;;;;;;;;;;;;29.81;28.13;101249.69;5030584;28;1458;-75
2022/02/08 17:19:02;;;;;;;;;;;;;;;29.14;28.68;101253.47;5029127;28;1320;-75
2022/02/08 17:46:46;;;;;;;;;;;;;;;28.85;29.49;101298.75;5030251;28;1604;-78